Time;durP1;ratioP1;P1;durP2;ratioP2;P2;SDS_P1;SDS_P2;PMS_P1;PMS_P2;Temp;Humidity;BMP_temperature;BMP_pressure;BME280_temperature;BME280_humidity;BME280_pressure;Samples;Min_cycle;Max_cycle;Signal;HPM_P1;HPM_P2
2022/03/26 00:00:36;;;;;;;;;;;;;;;10.84;37.75;100901.09;4413942;32;20390;-75
2022/03/26 00:03:11;;;;;;;;;;;;;;;10.71;38.04;100903.28;4421050;32;20059;-75
2022/03/26 00:05:39;;;;;;;;;;;;;;;10.76;37.82;100895.69;4429099;32;19993;-74
2022/03/26 00:08:07;;;;;;;;;;;;;;;10.45;38.46;100910.19;4429004;32;20020;-74
2022/03/26 00:10:36;;;;;;;;;;;;;;;10.40;38.51;100905.69;4429699;32;20004;-75
2022/03/26 00:13:03;;;;;;;;;;;;;;;10.49;38.60;100911.19;4428752;32;20495;-74
2022/03/26 00:15:31;;;;;;;;;;;;;;;10.36;38.78;100914.19;4439901;32;20498;-74
2022/03/26 00:17:58;;;;;;;;;;;;;;;10.38;38.49;100912.53;4429086;32;20033;-73
2022/03/26 00:20:25;;;;;;;;;;;;;;;10.36;38.16;100914.19;4428789;32;20037;-75
2022/03/26 00:22:52;;;;;;;;;;;;;;;10.41;38.03;100921.28;4428429;32;19977;-74
2022/03/26 00:25:21;;;;;;;;;;;;;;;10.33;38.39;100914.94;4426503;32;20008;-73
2022/03/26 00:27:49;;;;;;;;;;;;;;;10.19;38.91;100916.16;4414669;32;19977;-74
2022/03/26 00:30:16;;;;;;;;;;;;;;;10.27;39.09;100913.88;4431181;32;19981;-74
2022/03/26 00:32:43;;;;;;;;;;;;;;;10.35;38.66;100912.44;4402903;32;20009;-74
2022/03/26 00:35:10;;;;;;;;;;;;;;;10.24;38.33;100915.50;4444522;32;19987;-74
2022/03/26 00:37:38;;;;;;;;;;;;;;;9.74;40.19;100906.81;4444530;32;19999;-75
2022/03/26 00:40:05;;;;;;;;;;;;;;;9.97;39.52;100914.53;4442278;32;19976;-74
2022/03/26 00:42:32;;;;;;;;;;;;;;;10.01;39.34;100911.22;4444149;32;19988;-75
2022/03/26 00:44:59;;;;;;;;;;;;;;;10.11;39.11;100910.69;4444883;32;19996;-75
2022/03/26 00:47:26;;;;;;;;;;;;;;;9.98;39.64;100911.97;4443390;32;20030;-75
2022/03/26 00:49:54;;;;;;;;;;;;;;;9.94;39.25;100909.25;4443756;32;19977;-75
2022/03/26 00:52:21;;;;;;;;;;;;;;;9.68;40.27;100911.75;4444242;32;20004;-74
2022/03/26 00:54:49;;;;;;;;;;;;;;;9.77;39.52;100909.53;4443086;32;20026;-72
2022/03/26 00:57:16;;;;;;;;;;;;;;;9.73;39.69;100910.25;4430398;32;19981;-76
2022/03/26 00:59:44;;;;;;;;;;;;;;;9.81;39.48;100907.91;4443492;32;20349;-75
2022/03/26 01:02:11;;;;;;;;;;;;;;;9.75;39.50;100905.09;4441250;32;19976;-75
2022/03/26 01:04:38;;;;;;;;;;;;;;;9.71;39.73;100906.72;4417457;32;20687;-75
2022/03/26 01:07:05;;;;;;;;;;;;;;;9.59;40.03;100906.25;4444165;32;20023;-75
2022/03/26 01:09:32;;;;;;;;;;;;;;;9.67;39.98;100904.84;4444634;32;20049;-76
2022/03/26 01:11:59;;;;;;;;;;;;;;;9.64;40.23;100902.16;4430187;32;19985;-75
2022/03/26 01:14:26;;;;;;;;;;;;;;;9.65;39.90;100905.59;4443772;32;20033;-75
2022/03/26 01:16:53;;;;;;;;;;;;;;;9.84;39.52;100902.00;4443491;32;19985;-75
2022/03/26 01:19:20;;;;;;;;;;;;;;;9.67;39.77;100899.66;4444337;32;20374;-75
2022/03/26 01:21:47;;;;;;;;;;;;;;;9.51;40.31;100897.34;4442757;32;19996;-76
2022/03/26 01:24:14;;;;;;;;;;;;;;;9.77;39.28;100886.25;4442822;32;20003;-75
2022/03/26 01:26:41;;;;;;;;;;;;;;;9.80;39.00;100889.78;4443709;32;19997;-75
2022/03/26 01:29:09;;;;;;;;;;;;;;;9.66;39.92;100887.53;4443381;32;20003;-75
2022/03/26 01:31:37;;;;;;;;;;;;;;;9.81;39.80;100886.34;4444265;32;19973;-75
2022/03/26 01:34:04;;;;;;;;;;;;;;;9.56;40.47;100895.78;4441912;32;20004;-75
2022/03/26 01:36:31;;;;;;;;;;;;;;;9.30;41.02;100887.94;4443526;32;19989;-75
2022/03/26 01:38:58;;;;;;;;;;;;;;;9.38;40.62;100884.75;4444201;32;19977;-74
2022/03/26 01:41:25;;;;;;;;;;;;;;;9.43;40.06;100889.28;4443349;32;20433;-74
2022/03/26 01:43:52;;;;;;;;;;;;;;;9.36;40.62;100878.69;4443644;32;19977;-75
2022/03/26 01:46:20;;;;;;;;;;;;;;;9.43;40.19;100878.06;4438917;32;20026;-76
2022/03/26 01:48:48;;;;;;;;;;;;;;;9.35;40.38;100882.97;4437257;32;20030;-75
2022/03/26 01:51:16;;;;;;;;;;;;;;;9.21;40.98;100885.00;4426246;32;20003;-74
2022/03/26 01:53:46;;;;;;;;;;;;;;;9.28;40.94;100889.62;4441938;32;19997;-75
2022/03/26 01:56:14;;;;;;;;;;;;;;;9.08;41.30;100885.38;4441463;32;20345;-75
2022/03/26 01:58:41;;;;;;;;;;;;;;;9.29;40.73;100880.16;4429292;32;20029;-75
2022/03/26 02:01:08;;;;;;;;;;;;;;;9.35;40.56;100880.38;4442007;32;19990;-76
2022/03/26 02:03:35;;;;;;;;;;;;;;;9.23;40.63;100885.97;4442957;32;19987;-75
2022/03/26 02:06:03;;;;;;;;;;;;;;;9.24;40.91;100885.13;4443650;32;20330;-75
2022/03/26 02:08:30;;;;;;;;;;;;;;;9.43;40.14;100872.91;4443913;32;20000;-74
2022/03/26 02:10:57;;;;;;;;;;;;;;;9.07;41.36;100878.44;4442747;32;19989;-76
2022/03/26 02:13:24;;;;;;;;;;;;;;;9.27;40.82;100882.66;4443559;32;20019;-74
2022/03/26 02:15:50;;;;;;;;;;;;;;;9.11;41.27;100879.44;4443393;32;19989;-75
2022/03/26 02:18:17;;;;;;;;;;;;;;;9.13;41.24;100883.84;4443653;32;19977;-75
2022/03/26 02:20:45;;;;;;;;;;;;;;;8.82;41.95;100882.62;4443230;32;19996;-74
2022/03/26 02:23:12;;;;;;;;;;;;;;;8.95;41.65;100870.22;4440796;32;19997;-74
2022/03/26 02:25:38;;;;;;;;;;;;;;;9.01;41.22;100878.22;4442889;32;19992;-74
2022/03/26 02:28:06;;;;;;;;;;;;;;;9.10;41.42;100878.56;4443444;32;19980;-74
2022/03/26 02:30:33;;;;;;;;;;;;;;;8.80;41.99;100879.09;4441787;32;19987;-75
2022/03/26 02:33:00;;;;;;;;;;;;;;;8.81;42.12;100869.69;4443094;32;20311;-74
2022/03/26 02:35:27;;;;;;;;;;;;;;;9.10;41.43;100878.56;4428713;32;19995;-74
2022/03/26 02:37:54;;;;;;;;;;;;;;;9.04;41.51;100868.88;4441660;32;19973;-73
2022/03/26 02:40:21;;;;;;;;;;;;;;;8.91;42.01;100870.94;4445279;32;19986;-75
2022/03/26 02:42:48;;;;;;;;;;;;;;;8.82;42.29;100866.28;4443929;32;19997;-75
2022/03/26 02:45:14;;;;;;;;;;;;;;;8.91;41.83;100865.75;4443843;32;20002;-74
2022/03/26 02:47:41;;;;;;;;;;;;;;;8.83;41.90;100866.31;4443299;32;20000;-75
2022/03/26 02:50:09;;;;;;;;;;;;;;;8.80;42.08;100873.94;4444812;32;19981;-75
2022/03/26 02:52:36;;;;;;;;;;;;;;;8.84;41.95;100881.00;4431160;32;20009;-74
2022/03/26 02:55:04;;;;;;;;;;;;;;;8.77;42.24;100872.94;4432380;32;20060;-74
2022/03/26 02:57:31;;;;;;;;;;;;;;;8.76;42.10;100882.38;4430667;32;21074;-74
2022/03/26 02:59:58;;;;;;;;;;;;;;;8.60;42.73;100880.00;4445475;32;19999;-75
2022/03/26 03:02:25;;;;;;;;;;;;;;;8.40;43.15;100881.78;4443459;32;20038;-76
2022/03/26 03:04:52;;;;;;;;;;;;;;;8.46;42.77;100879.47;4445590;32;19981;-76
2022/03/26 03:07:19;;;;;;;;;;;;;;;8.71;42.32;100876.19;4444760;32;19989;-76
2022/03/26 03:09:46;;;;;;;;;;;;;;;8.81;42.03;100875.72;4442026;32;20015;-75
2022/03/26 03:12:13;;;;;;;;;;;;;;;8.78;42.22;100874.72;4445198;32;19995;-75
2022/03/26 03:14:39;;;;;;;;;;;;;;;8.78;42.32;100879.88;4443816;32;20490;-74
2022/03/26 03:17:06;;;;;;;;;;;;;;;8.73;41.87;100882.25;4445579;32;19992;-76
2022/03/26 03:19:33;;;;;;;;;;;;;;;8.63;42.58;100877.56;4443319;32;20066;-75
2022/03/26 03:22:03;;;;;;;;;;;;;;;8.52;42.88;100876.22;4443562;32;19990;-75
2022/03/26 03:24:30;;;;;;;;;;;;;;;8.48;42.55;100874.34;4443107;32;20321;-75
2022/03/26 03:26:57;;;;;;;;;;;;;;;8.67;42.20;100871.69;4444881;32;19972;-76
2022/03/26 03:29:24;;;;;;;;;;;;;;;8.60;42.86;100869.69;4444992;32;20012;-75
2022/03/26 03:31:51;;;;;;;;;;;;;;;8.47;43.16;100875.19;4444988;32;20345;-75
2022/03/26 03:34:18;;;;;;;;;;;;;;;8.56;42.68;100873.84;4445383;32;19977;-75
2022/03/26 03:36:44;;;;;;;;;;;;;;;8.54;42.66;100874.59;4444905;32;19976;-76
2022/03/26 03:39:11;;;;;;;;;;;;;;;8.37;42.95;100879.03;4443400;32;20030;-75
2022/03/26 03:41:39;;;;;;;;;;;;;;;8.56;42.79;100872.97;4445184;32;19999;-75
2022/03/26 03:44:06;;;;;;;;;;;;;;;8.46;43.04;100871.72;4445465;32;20007;-75
2022/03/26 03:46:33;;;;;;;;;;;;;;;8.36;43.22;100875.59;4444204;32;20042;-75
2022/03/26 03:49:00;;;;;;;;;;;;;;;8.38;43.14;100873.97;4444150;32;19992;-75
2022/03/26 03:51:28;;;;;;;;;;;;;;;8.19;43.49;100871.41;4443062;32;19981;-75
2022/03/26 03:53:55;;;;;;;;;;;;;;;8.48;42.64;100874.34;4443596;32;19981;-75
2022/03/26 03:56:22;;;;;;;;;;;;;;;8.47;43.06;100867.44;4443221;32;20000;-74
2022/03/26 03:58:49;;;;;;;;;;;;;;;8.69;42.19;100864.03;4444637;32;20018;-74
2022/03/26 04:01:16;;;;;;;;;;;;;;;8.37;43.23;100867.03;4444131;32;20405;-74
2022/03/26 04:03:43;;;;;;;;;;;;;;;8.41;42.97;100880.09;4445204;32;20364;-74
2022/03/26 04:06:10;;;;;;;;;;;;;;;8.37;43.19;100867.03;4444614;32;20401;-76
2022/03/26 04:08:37;;;;;;;;;;;;;;;8.42;42.88;100863.78;4435385;32;20005;-73
2022/03/26 04:11:04;;;;;;;;;;;;;;;8.34;43.49;100861.72;4444750;32;19977;-75
2022/03/26 04:13:30;;;;;;;;;;;;;;;8.14;43.84;100865.19;4445262;32;20023;-74
2022/03/26 04:15:58;;;;;;;;;;;;;;;8.29;43.41;100867.50;4444937;32;19973;-74
2022/03/26 04:18:25;;;;;;;;;;;;;;;8.32;43.49;100867.63;4444459;32;20007;-73
2022/03/26 04:20:53;;;;;;;;;;;;;;;8.57;43.10;100866.97;4444694;32;19977;-74
2022/03/26 04:23:20;;;;;;;;;;;;;;;8.58;42.94;100866.16;4450549;32;19989;-75
2022/03/26 04:25:47;;;;;;;;;;;;;;;8.62;42.84;100873.22;4428408;32;19994;-74
2022/03/26 04:28:14;;;;;;;;;;;;;;;8.31;43.32;100871.91;4438440;32;19982;-75
2022/03/26 04:30:41;;;;;;;;;;;;;;;8.12;44.12;100882.28;4445126;32;19981;-73
2022/03/26 04:33:08;;;;;;;;;;;;;;;8.37;43.34;100887.66;4456233;32;20000;-73
2022/03/26 04:35:34;;;;;;;;;;;;;;;8.32;43.33;100888.28;4443356;32;20306;-73
2022/03/26 04:38:02;;;;;;;;;;;;;;;8.32;43.45;100884.00;4444779;32;19991;-73
2022/03/26 04:40:29;;;;;;;;;;;;;;;8.43;43.35;100887.06;4456378;32;19981;-74
2022/03/26 04:42:55;;;;;;;;;;;;;;;8.43;43.20;100891.34;4444975;32;20003;-72
2022/03/26 04:45:23;;;;;;;;;;;;;;;8.44;43.48;100888.81;4444712;32;20026;-72
2022/03/26 04:47:50;;;;;;;;;;;;;;;8.62;43.09;100880.97;4444290;32;19985;-73
2022/03/26 04:50:19;;;;;;;;;;;;;;;8.60;43.12;100882.59;4444062;32;20003;-72
2022/03/26 04:52:48;;;;;;;;;;;;;;;8.45;43.53;100884.53;4429176;32;20342;-72
2022/03/26 04:55:15;;;;;;;;;;;;;;;8.59;43.59;100883.44;4424492;32;19974;-72
2022/03/26 04:57:43;;;;;;;;;;;;;;;8.65;43.40;100887.94;4414586;32;20683;-73
2022/03/26 05:00:10;;;;;;;;;;;;;;;8.76;42.92;100884.09;4429405;32;20023;-74
2022/03/26 05:02:39;;;;;;;;;;;;;;;8.74;42.85;100889.22;4426892;32;20904;-74
2022/03/26 05:05:06;;;;;;;;;;;;;;;8.25;44.85;100884.56;4427975;32;19982;-74
2022/03/26 05:07:45;;;;;;;;;;;;;;;8.42;44.38;100889.56;4430308;32;20349;-71
2022/03/26 05:10:19;;;;;;;;;;;;;;;8.69;43.77;100889.84;4428451;32;19999;-74
2022/03/26 05:12:47;;;;;;;;;;;;;;;8.53;44.11;100893.50;4424767;32;19990;-74
2022/03/26 05:15:14;;;;;;;;;;;;;;;8.49;44.23;100901.94;4428948;32;20723;-75
2022/03/26 05:17:43;;;;;;;;;;;;;;;8.52;44.42;100902.03;4414175;32;20064;-76
2022/03/26 05:20:12;;;;;;;;;;;;;;;8.58;44.07;100899.72;4427832;32;19993;-74
2022/03/26 05:22:40;;;;;;;;;;;;;;;8.89;43.53;100903.53;4428767;32;19990;-75
2022/03/26 05:25:08;;;;;;;;;;;;;;;8.95;43.38;100903.78;4417384;32;20023;-75
2022/03/26 05:27:35;;;;;;;;;;;;;;;9.18;42.87;100902.97;4420520;32;20377;-75
2022/03/26 05:30:05;;;;;;;;;;;;;;;9.05;43.72;100898.16;4428398;32;20045;-74
2022/03/26 05:32:32;;;;;;;;;;;;;;;9.21;43.59;100908.25;4442988;32;19977;-74
2022/03/26 05:34:59;;;;;;;;;;;;;;;9.29;43.80;100906.00;4443656;32;20030;-74
2022/03/26 05:37:25;;;;;;;;;;;;;;;9.48;43.04;100908.44;4442902;32;20015;-74
2022/03/26 05:39:52;;;;;;;;;;;;;;;9.63;43.53;100908.13;4442852;32;19985;-74
2022/03/26 05:42:19;;;;;;;;;;;;;;;9.63;43.66;100902.94;4443536;32;20357;-74
2022/03/26 05:44:46;;;;;;;;;;;;;;;9.63;44.50;100908.13;4443381;32;19978;-74
2022/03/26 05:47:13;;;;;;;;;;;;;;;9.73;44.46;100905.06;4444186;32;20040;-74
2022/03/26 05:49:40;;;;;;;;;;;;;;;9.81;43.92;100897.56;4442489;32;19974;-74
2022/03/26 05:52:08;;;;;;;;;;;;;;;9.98;43.16;100895.59;4443518;32;19976;-73
2022/03/26 05:54:35;;;;;;;;;;;;;;;10.18;42.17;100904.94;4443318;32;19965;-74
2022/03/26 05:57:02;;;;;;;;;;;;;;;10.51;41.42;100911.25;4442938;32;19996;-75
2022/03/26 05:59:30;;;;;;;;;;;;;;;10.89;40.83;100907.31;4444128;32;19991;-75
2022/03/26 06:01:57;;;;;;;;;;;;;;;11.18;39.96;100906.50;4441021;32;20018;-75
2022/03/26 06:04:24;;;;;;;;;;;;;;;11.41;40.51;100908.91;4440703;32;19977;-76
2022/03/26 06:06:51;;;;;;;;;;;;;;;11.58;39.90;100912.00;4442555;32;19977;-74
2022/03/26 06:09:18;;;;;;;;;;;;;;;11.77;39.03;100909.13;4443262;32;20432;-75
2022/03/26 06:11:45;;;;;;;;;;;;;;;11.86;39.72;100903.31;4441563;32;19989;-75
2022/03/26 06:14:13;;;;;;;;;;;;;;;11.78;40.77;100915.19;4443785;32;19969;-75
2022/03/26 06:16:40;;;;;;;;;;;;;;;12.03;39.00;100907.28;4443825;32;20327;-75
2022/03/26 06:19:07;;;;;;;;;;;;;;;12.13;37.99;100902.34;4429531;32;19989;-74
2022/03/26 06:21:34;;;;;;;;;;;;;;;12.36;37.82;100908.13;4430349;32;19985;-75
2022/03/26 06:24:02;;;;;;;;;;;;;;;12.31;38.10;100908.00;4445364;32;20022;-76
2022/03/26 06:26:29;;;;;;;;;;;;;;;12.57;38.00;100906.97;4443873;32;20311;-76
2022/03/26 06:28:55;;;;;;;;;;;;;;;12.60;37.81;100905.25;4445573;32;20033;-76
2022/03/26 06:31:22;;;;;;;;;;;;;;;12.82;36.65;100907.53;4445246;32;19981;-79
2022/03/26 06:33:50;;;;;;;;;;;;;;;12.97;35.95;100907.03;4445198;32;20358;-79
2022/03/26 06:36:18;;;;;;;;;;;;;;;13.18;35.50;100906.66;4424120;32;20046;-82
2022/03/26 06:38:45;;;;;;;;;;;;;;;13.31;35.38;100907.84;4443788;32;20037;-80
2022/03/26 06:41:12;;;;;;;;;;;;;;;13.41;34.99;100908.09;4445302;32;19985;-78
2022/03/26 06:43:39;;;;;;;;;;;;;;;13.65;34.57;100909.44;4444929;32;20763;-78
2022/03/26 06:46:06;;;;;;;;;;;;;;;13.96;34.06;100911.81;4443878;32;19981;-77
2022/03/26 06:48:33;;;;;;;;;;;;;;;14.26;33.46;100915.81;4442820;32;20959;-77
2022/03/26 06:51:02;;;;;;;;;;;;;;;14.60;32.50;100906.91;4442479;32;20038;-79
2022/03/26 06:53:30;;;;;;;;;;;;;;;14.89;32.03;100916.94;4443993;32;19973;-79
2022/03/26 06:55:58;;;;;;;;;;;;;;;15.19;30.98;100913.94;4443611;32;19974;-79
2022/03/26 06:58:25;;;;;;;;;;;;;;;15.46;30.88;100912.56;4444601;32;19969;-78
2022/03/26 07:00:52;;;;;;;;;;;;;;;15.89;30.79;100914.03;4444226;32;19995;-78
2022/03/26 07:03:19;;;;;;;;;;;;;;;16.42;31.09;100918.03;4429857;32;20385;-78
2022/03/26 07:05:47;;;;;;;;;;;;;;;16.65;29.27;100911.25;4415846;32;19985;-78
2022/03/26 07:08:14;;;;;;;;;;;;;;;17.05;28.92;100913.38;4430156;32;19985;-81
2022/03/26 07:10:44;;;;;;;;;;;;;;;17.37;28.63;100916.19;4427044;32;20046;-79
2022/03/26 07:13:12;;;;;;;;;;;;;;;17.74;28.47;100922.47;4444866;32;19989;-78
2022/03/26 07:15:38;;;;;;;;;;;;;;;18.27;27.35;100923.53;4445164;32;20031;-78
2022/03/26 07:18:05;;;;;;;;;;;;;;;18.49;26.76;100920.06;4444199;32;20000;-78
2022/03/26 07:20:33;;;;;;;;;;;;;;;18.70;27.21;100918.34;4444436;32;19977;-77
2022/03/26 07:23:00;;;;;;;;;;;;;;;18.81;25.90;100913.97;4444895;32;20033;-79
2022/03/26 07:25:29;;;;;;;;;;;;;;;18.96;27.22;100913.97;4444000;32;19996;-78
2022/03/26 07:27:56;;;;;;;;;;;;;;;19.13;26.50;100916.56;4444428;32;20148;-79
2022/03/26 07:30:23;;;;;;;;;;;;;;;19.41;26.64;100917.38;4417647;32;840302;-79
2022/03/26 07:32:51;;;;;;;;;;;;;;;19.72;24.46;100914.69;4426517;32;20033;-83
2022/03/26 07:35:18;;;;;;;;;;;;;;;19.77;25.13;100912.91;4444590;32;19993;-78
2022/03/26 07:37:44;;;;;;;;;;;;;;;20.20;25.12;100917.94;4446136;32;20785;-79
2022/03/26 07:40:14;;;;;;;;;;;;;;;20.57;23.79;100913.31;4441775;32;20075;-78
2022/03/26 07:42:41;;;;;;;;;;;;;;;20.59;23.32;100916.81;4427928;32;20056;-74
2022/03/26 07:45:07;;;;;;;;;;;;;;;20.97;22.43;100920.03;4445410;32;19989;-75
2022/03/26 07:47:35;;;;;;;;;;;;;;;20.59;22.69;100915.97;4443458;32;19977;-74
2022/03/26 07:50:03;;;;;;;;;;;;;;;21.01;22.42;100919.09;4442586;32;19981;-78
2022/03/26 07:52:29;;;;;;;;;;;;;;;21.08;23.92;100920.78;4441149;32;19976;-73
2022/03/26 07:54:56;;;;;;;;;;;;;;;21.11;23.36;100926.00;4446777;32;20470;-76
2022/03/26 07:57:23;;;;;;;;;;;;;;;21.10;22.64;100929.53;4445173;32;19977;-76
2022/03/26 07:59:50;;;;;;;;;;;;;;;21.13;23.59;100918.97;4443807;32;20009;-78
2022/03/26 08:02:17;;;;;;;;;;;;;;;20.70;24.12;100924.63;4444016;32;20343;-79
2022/03/26 08:04:46;;;;;;;;;;;;;;;20.96;23.78;100923.53;4430701;32;19981;-76
2022/03/26 08:07:13;;;;;;;;;;;;;;;21.39;23.19;100917.88;4444971;32;19973;-77
2022/03/26 08:09:40;;;;;;;;;;;;;;;21.16;23.00;100918.94;4442137;32;20019;-75
2022/03/26 08:12:07;;;;;;;;;;;;;;;20.76;23.91;100916.69;4443989;32;19992;-74
2022/03/26 08:14:35;;;;;;;;;;;;;;;20.95;23.50;100911.25;4437722;32;19994;-74
2022/03/26 08:17:02;;;;;;;;;;;;;;;21.10;24.99;100908.47;4442691;32;19985;-74
2022/03/26 08:19:29;;;;;;;;;;;;;;;21.40;24.15;100911.69;4439144;32;20385;-71
2022/03/26 08:21:56;;;;;;;;;;;;;;;21.75;22.33;100912.16;4442157;32;19973;-73
2022/03/26 08:24:23;;;;;;;;;;;;;;;21.61;23.79;100910.59;4443244;32;19969;-73
2022/03/26 08:26:50;;;;;;;;;;;;;;;21.82;22.78;100903.28;4442761;32;20349;-74
2022/03/26 08:29:17;;;;;;;;;;;;;;;21.74;23.16;100907.78;4443325;32;20728;-74
2022/03/26 08:31:48;;;;;;;;;;;;;;;22.00;23.46;100904.78;4443766;32;19974;-74
2022/03/26 08:34:16;;;;;;;;;;;;;;;22.41;21.34;100910.38;4443026;32;19977;-73
2022/03/26 08:36:42;;;;;;;;;;;;;;;22.19;22.17;100904.56;4443862;32;19981;-73
2022/03/26 08:39:09;;;;;;;;;;;;;;;22.31;22.51;100909.66;4443897;32;19985;-73
2022/03/26 08:41:36;;;;;;;;;;;;;;;22.37;21.22;100908.69;4444285;32;19992;-71
2022/03/26 08:44:03;;;;;;;;;;;;;;;22.67;21.98;100913.47;4444180;32;19978;-74
2022/03/26 08:46:30;;;;;;;;;;;;;;;22.46;22.70;100911.16;4444217;32;19992;-75
2022/03/26 08:48:58;;;;;;;;;;;;;;;22.57;22.33;100909.25;4443943;32;19995;-74
2022/03/26 08:51:24;;;;;;;;;;;;;;;22.23;21.68;100907.13;4442751;32;20117;-74
2022/03/26 08:53:51;;;;;;;;;;;;;;;22.69;21.74;100914.31;4444366;32;20281;-73
2022/03/26 08:56:18;;;;;;;;;;;;;;;22.54;21.81;100911.94;4444146;32;20026;-73
2022/03/26 08:58:45;;;;;;;;;;;;;;;22.49;21.03;100916.41;4430349;32;19989;-74
2022/03/26 09:01:12;;;;;;;;;;;;;;;22.36;21.96;100906.94;4444228;32;20000;-73
2022/03/26 09:03:40;;;;;;;;;;;;;;;22.44;21.78;100915.63;4444465;32;19982;-73
2022/03/26 09:06:08;;;;;;;;;;;;;;;22.57;22.74;100916.28;4444767;32;20417;-73
2022/03/26 09:08:35;;;;;;;;;;;;;;;22.64;22.98;100908.25;4445007;32;19981;-73
2022/03/26 09:11:04;;;;;;;;;;;;;;;22.73;22.27;100913.38;4444415;32;19992;-73
2022/03/26 09:13:31;;;;;;;;;;;;;;;22.62;22.09;100904.78;4444428;32;19985;-73
2022/03/26 09:15:58;;;;;;;;;;;;;;;22.85;22.25;100901.75;4442602;32;20334;-72
2022/03/26 09:18:26;;;;;;;;;;;;;;;22.99;21.10;100909.44;4442589;32;20034;-73
2022/03/26 09:20:53;;;;;;;;;;;;;;;23.16;21.58;100907.34;4440062;32;20117;-73
2022/03/26 09:23:20;;;;;;;;;;;;;;;22.90;21.93;100912.19;4444566;32;20043;-72
2022/03/26 09:25:47;;;;;;;;;;;;;;;22.55;22.65;100903.09;4444529;32;19985;-73
2022/03/26 09:28:13;;;;;;;;;;;;;;;22.91;22.98;100900.72;4444924;32;20744;-73
2022/03/26 09:30:40;;;;;;;;;;;;;;;23.28;20.48;100894.81;4443780;32;19976;-74
2022/03/26 09:33:07;;;;;;;;;;;;;;;23.17;22.08;100893.25;4444411;32;19985;-74
2022/03/26 09:35:34;;;;;;;;;;;;;;;22.90;21.45;100888.44;4444033;32;19985;-73
2022/03/26 09:38:01;;;;;;;;;;;;;;;22.52;22.69;100889.97;4444620;32;20026;-76
2022/03/26 09:40:28;;;;;;;;;;;;;;;22.59;22.67;100889.00;4444252;32;19981;-73
2022/03/26 09:42:54;;;;;;;;;;;;;;;22.37;24.62;100892.88;4443823;32;20004;-74
2022/03/26 09:45:22;;;;;;;;;;;;;;;23.04;20.97;100889.09;4429932;32;20046;-74
2022/03/26 09:47:51;;;;;;;;;;;;;;;22.46;22.68;100892.69;4442658;32;20365;-74
2022/03/26 09:50:19;;;;;;;;;;;;;;;23.20;22.95;100892.34;4439762;32;19989;-73
2022/03/26 09:52:46;;;;;;;;;;;;;;;22.87;23.51;100899.06;4441948;32;20075;-74
2022/03/26 09:55:13;;;;;;;;;;;;;;;22.51;21.64;100890.87;4442616;32;20000;-74
2022/03/26 09:57:40;;;;;;;;;;;;;;;22.82;21.62;100898.28;4442035;32;20763;-74
2022/03/26 10:00:08;;;;;;;;;;;;;;;22.70;20.26;100887.03;4433689;32;20025;-74
2022/03/26 10:02:38;;;;;;;;;;;;;;;22.84;20.05;100892.06;4444196;32;20001;-73
2022/03/26 10:05:08;;;;;;;;;;;;;;;23.28;19.29;100895.69;4443574;32;20338;-74
2022/03/26 10:07:35;;;;;;;;;;;;;;;23.62;18.93;100887.09;4422707;32;20779;-73
2022/03/26 10:10:03;;;;;;;;;;;;;;;23.19;20.58;100888.78;4429490;32;20008;-74
2022/03/26 10:12:30;;;;;;;;;;;;;;;22.84;20.16;100891.19;4444076;32;19970;-74
2022/03/26 10:14:58;;;;;;;;;;;;;;;23.09;19.58;100889.88;4443913;32;20751;-73
2022/03/26 10:17:30;;;;;;;;;;;;;;;23.36;19.47;100882.34;4443496;32;19985;-74
2022/03/26 10:20:02;;;;;;;;;;;;;;;23.21;19.12;100879.09;4441872;32;19988;-74
2022/03/26 10:22:31;;;;;;;;;;;;;;;23.23;17.31;100875.53;4442275;32;19985;-74
2022/03/26 10:25:04;;;;;;;;;;;;;;;23.43;17.36;100883.94;4443521;32;19985;-74
2022/03/26 10:27:32;;;;;;;;;;;;;;;23.42;18.74;100880.44;4437675;32;19985;-74
2022/03/26 10:30:02;;;;;;;;;;;;;;;23.23;18.94;100875.53;4442212;32;19988;-74
2022/03/26 10:32:41;;;;;;;;;;;;;;;23.54;17.90;100865.22;4428365;32;19997;-74
2022/03/26 10:35:10;;;;;;;;;;;;;;;23.05;19.63;100875.00;4443707;32;20020;-74
2022/03/26 10:37:44;;;;;;;;;;;;;;;22.44;19.47;100870.75;4442949;32;19977;-74
2022/03/26 10:40:29;;;;;;;;;;;;;;;22.85;18.70;100866.56;4440123;32;19977;-74
2022/03/26 10:43:16;;;;;;;;;;;;;;;23.36;18.24;100866.47;4443927;32;19997;-74
2022/03/26 10:45:46;;;;;;;;;;;;;;;22.91;18.92;100861.13;4443692;32;20001;-73
2022/03/26 10:48:13;;;;;;;;;;;;;;;23.51;17.55;100858.22;4442544;32;20028;-74
2022/03/26 10:50:40;;;;;;;;;;;;;;;23.75;19.22;100858.66;4440969;32;20246;-74
2022/03/26 10:53:11;;;;;;;;;;;;;;;23.87;18.29;100859.25;4440886;32;20340;-73
2022/03/26 10:55:39;;;;;;;;;;;;;;;23.95;18.99;100852.91;4443475;32;19985;-72
2022/03/26 10:58:06;;;;;;;;;;;;;;;23.19;19.25;100849.16;4438329;32;19986;-72
2022/03/26 11:00:33;;;;;;;;;;;;;;;23.40;18.29;100847.00;4429839;32;19981;-74
2022/03/26 11:03:00;;;;;;;;;;;;;;;23.88;16.61;100844.25;4445364;32;19970;-72
2022/03/26 11:05:28;;;;;;;;;;;;;;;23.87;17.26;100847.81;4445103;32;20036;-72
2022/03/26 11:07:55;;;;;;;;;;;;;;;23.74;18.72;100843.66;4431320;32;19985;-72
2022/03/26 11:10:25;;;;;;;;;;;;;;;23.90;17.57;100837.16;4431690;32;19977;-71
2022/03/26 11:12:52;;;;;;;;;;;;;;;23.26;19.60;100838.47;4431715;32;20520;-72
2022/03/26 11:15:23;;;;;;;;;;;;;;;23.36;17.58;100829.50;4444765;32;20401;-73
2022/03/26 11:18:08;;;;;;;;;;;;;;;23.70;17.40;100839.34;4428991;32;19985;-71
2022/03/26 11:20:35;;;;;;;;;;;;;;;23.54;16.73;100834.38;4444436;32;20003;-73
2022/03/26 11:23:02;;;;;;;;;;;;;;;23.50;17.06;100827.41;4444093;32;20053;-72
2022/03/26 11:25:32;;;;;;;;;;;;;;;23.34;17.80;100826.00;4445463;32;19985;-72
2022/03/26 11:27:59;;;;;;;;;;;;;;;23.40;16.22;100826.75;4445720;32;20286;-75
2022/03/26 11:30:45;;;;;;;;;;;;;;;22.98;18.59;100817.91;4445369;32;19969;-73
2022/03/26 11:33:14;;;;;;;;;;;;;;;23.65;16.26;100821.81;4444696;32;20022;-74
2022/03/26 11:35:52;;;;;;;;;;;;;;;23.60;18.36;100807.81;4444781;32;19976;-78
2022/03/26 11:38:19;;;;;;;;;;;;;;;23.09;18.49;100800.06;4444632;32;19993;-78
2022/03/26 11:40:49;;;;;;;;;;;;;;;23.59;15.98;100790.22;4435372;32;20348;-75
2022/03/26 11:43:40;;;;;;;;;;;;;;;23.58;16.45;100804.34;4460704;32;20395;-74
2022/03/26 11:51:40;;;;;;;;;;;;;;;23.44;18.24;100794.06;4454340;32;19969;-78
2022/03/26 11:54:09;;;;;;;;;;;;;;;23.75;15.78;100779.31;4459660;32;20628;-75
2022/03/26 11:56:36;;;;;;;;;;;;;;;23.76;16.22;100778.41;4443745;32;20003;-79
2022/03/26 11:59:06;;;;;;;;;;;;;;;23.29;16.52;100780.31;4439865;32;19980;-74
2022/03/26 12:01:43;;;;;;;;;;;;;;;23.70;15.70;100768.84;4459798;32;20040;-78
2022/03/26 12:04:11;;;;;;;;;;;;;;;23.53;17.49;100770.97;4459252;32;19999;-75
2022/03/26 12:06:44;;;;;;;;;;;;;;;23.22;17.87;100779.56;4458603;32;20003;-73
2022/03/26 12:09:11;;;;;;;;;;;;;;;23.49;17.39;100762.25;4460816;32;20034;-77
2022/03/26 12:11:41;;;;;;;;;;;;;;;23.65;16.24;100752.19;4457711;32;19973;-76
2022/03/26 12:14:09;;;;;;;;;;;;;;;23.83;15.67;100757.06;4447418;32;20327;-78
2022/03/26 12:16:48;;;;;;;;;;;;;;;23.61;18.00;100755.81;4458696;32;19984;-77
2022/03/26 12:19:34;;;;;;;;;;;;;;;23.96;15.06;100751.50;4458444;32;19984;-76
2022/03/26 12:22:33;;;;;;;;;;;;;;;24.03;15.22;100740.72;4453829;32;19981;-79
2022/03/26 12:25:01;;;;;;;;;;;;;;;23.86;15.40;100740.25;4442653;32;20043;-80
2022/03/26 12:27:28;;;;;;;;;;;;;;;23.53;14.99;100737.50;4460201;32;19987;-81
2022/03/26 12:29:58;;;;;;;;;;;;;;;23.73;14.58;100738.81;4459947;32;20019;-75
2022/03/26 12:32:29;;;;;;;;;;;;;;;23.19;15.41;100738.22;4442951;32;19973;-78
2022/03/26 12:34:58;;;;;;;;;;;;;;;23.34;15.57;100736.16;4452004;32;20015;-76
2022/03/26 12:37:25;;;;;;;;;;;;;;;23.56;14.71;100729.50;4458821;32;19990;-77
2022/03/26 12:39:52;;;;;;;;;;;;;;;22.55;16.99;100730.72;4459695;32;19981;-80
2022/03/26 12:42:19;;;;;;;;;;;;;;;23.05;15.13;100732.37;4459820;32;20021;-74
2022/03/26 12:44:46;;;;;;;;;;;;;;;22.97;15.69;100723.72;4459229;32;19985;-74
2022/03/26 12:47:24;;;;;;;;;;;;;;;22.87;14.68;100719.53;4459918;32;19995;-76
2022/03/26 12:49:54;;;;;;;;;;;;;;;22.59;16.40;100714.81;4457544;32;20000;-76